createdAt,value
2018-03-18T00:00:04.899Z,69.97
2018-03-18T00:01:14.892Z,69.97
2018-03-18T00:02:24.880Z,69.87
2018-03-18T00:03:34.605Z,70.06
2018-03-18T00:04:44.325Z,70.06
2018-03-18T00:05:53.780Z,70.25
2018-03-18T00:07:03.237Z,70.16
2018-03-18T00:08:12.689Z,70.25
2018-03-18T00:09:22.679Z,70.16
2018-03-18T00:10:32.664Z,70.34
2018-03-18T00:11:42.380Z,70.72
2018-03-18T00:12:52.367Z,70.63
2018-03-18T00:14:02.458Z,70.34
2018-03-18T00:15:12.444Z,71.48
2018-03-18T00:16:22.429Z,70.63
2018-03-18T00:17:32.416Z,70.53
2018-03-18T00:18:42.410Z,70.53
2018-03-18T00:19:52.397Z,70.34
2018-03-18T00:21:02.378Z,70.34
2018-03-18T00:22:11.564Z,70.44
2018-03-18T00:23:21.558Z,70.25
2018-03-18T00:24:31.279Z,70.16
2018-03-18T00:25:41.273Z,70.63
2018-03-18T00:26:51.261Z,71
2018-03-18T00:28:00.979Z,71.38
2018-03-18T00:29:10.981Z,71
2018-03-18T00:30:20.980Z,71.57
2018-03-18T00:31:30.698Z,72.04
2018-03-18T00:32:40.697Z,71.95
2018-03-18T00:33:50.432Z,72.19
2018-03-18T00:35:00.427Z,71.72
2018-03-18T00:36:10.418Z,71.15
2018-03-18T00:37:20.397Z,71.81
2018-03-18T00:38:30.114Z,72.94
2018-03-18T00:39:40.100Z,74.26
2018-03-18T00:40:50.093Z,75.02
2018-03-18T00:42:00.081Z,73.98
2018-03-18T00:43:09.799Z,73.51
2018-03-18T00:44:19.800Z,73.98
2018-03-18T00:45:29.555Z,74.55
2018-03-18T00:46:39.549Z,74.83
2018-03-18T00:47:49.536Z,74.83
2018-03-18T00:48:59.538Z,74.11
2018-03-18T00:50:09.267Z,73.65
2018-03-18T00:51:18.986Z,72.76
2018-03-18T00:52:28.707Z,72.76
2018-03-18T00:53:38.160Z,73.42
2018-03-18T00:54:48.147Z,73.6
2018-03-18T00:55:57.871Z,72.99
2018-03-18T00:57:06.797Z,72.94
2018-03-18T00:58:16.793Z,73.89
2018-03-18T00:59:26.508Z,74.68
2018-03-18T01:00:36.493Z,74.77
2018-03-18T01:01:46.486Z,74.3
2018-03-18T01:02:56.468Z,73.36
2018-03-18T01:04:06.454Z,72.99
2018-03-18T01:05:16.439Z,72.99
2018-03-18T01:06:26.514Z,72.33
2018-03-18T01:07:36.496Z,73.08
2018-03-18T01:08:46.543Z,74.02
2018-03-18T01:09:56.541Z,73.46
2018-03-18T01:11:06.532Z,73.46
2018-03-18T01:12:16.534Z,73.55
2018-03-18T01:13:26.247Z,73.27
2018-03-18T01:14:36.232Z,73.46
2018-03-18T01:15:46.222Z,72.61
2018-03-18T01:16:56.209Z,72.7
2018-03-18T01:18:05.927Z,71.95
2018-03-18T01:19:15.915Z,72.42
2018-03-18T01:20:25.636Z,72.7
2018-03-18T01:21:35.625Z,73.04
2018-03-18T01:22:45.617Z,72.57
2018-03-18T01:23:55.336Z,72.76
2018-03-18T01:25:05.324Z,73.13
2018-03-18T01:26:15.045Z,73.6
2018-03-18T01:27:25.032Z,73.42
2018-03-18T01:28:35.016Z,73.74
2018-03-18T01:29:45.050Z,73.55
2018-03-18T01:30:54.770Z,72.89
2018-03-18T01:32:04.486Z,72.42
2018-03-18T01:33:14.491Z,71.76
2018-03-18T01:34:24.210Z,71.57
2018-03-18T01:35:33.932Z,70.4
2018-03-18T01:36:43.913Z,70.12
2018-03-18T01:37:53.626Z,70.5
2018-03-18T01:39:03.365Z,70.59
2018-03-18T01:40:12.825Z,70.21
2018-03-18T01:41:22.860Z,68.99
2018-03-18T01:42:32.848Z,68.99
2018-03-18T01:43:42.841Z,70.03
2018-03-18T01:44:52.833Z,69.93
2018-03-18T01:46:02.824Z,71.06
2018-03-18T01:47:12.915Z,71.34
2018-03-18T01:48:22.904Z,71.25
2018-03-18T01:49:32.892Z,71.81
2018-03-18T01:50:42.874Z,72.1
2018-03-18T01:51:52.863Z,72.47
2018-03-18T01:53:02.574Z,73.13
2018-03-18T01:54:12.286Z,73.42
2018-03-18T01:55:22.300Z,74.08
2018-03-18T01:56:32.019Z,74.08
2018-03-18T01:57:41.740Z,74.08
2018-03-18T01:58:50.924Z,73.7
2018-03-18T02:00:00.910Z,73.42
2018-03-18T02:01:10.633Z,72.94
2018-03-18T02:02:20.620Z,73.13
2018-03-18T02:03:30.607Z,72.94
2018-03-18T02:04:40.590Z,72.85
2018-03-18T02:05:50.312Z,73.51
2018-03-18T02:07:00.304Z,73.42
2018-03-18T02:08:10.287Z,73.89
2018-03-18T02:09:20.264Z,73.51
2018-03-18T02:10:30.265Z,73.51
2018-03-18T02:11:40.259Z,74.08
2018-03-18T02:12:49.979Z,74.26
2018-03-18T02:13:59.963Z,74.73
2018-03-18T02:15:09.952Z,74.55
2018-03-18T02:16:19.933Z,75.02
2018-03-18T02:17:29.913Z,74.73
2018-03-18T02:18:39.901Z,74.92
2018-03-18T02:19:49.620Z,74.83
2018-03-18T02:20:59.072Z,75.3
2018-03-18T02:22:08.789Z,74.45
2018-03-18T02:23:18.781Z,74.36
2018-03-18T02:24:28.234Z,74.55
2018-03-18T02:25:37.949Z,74.73
2018-03-18T02:26:47.932Z,74.73
2018-03-18T02:27:57.939Z,74.26
2018-03-18T02:29:07.672Z,74.26
2018-03-18T02:30:17.662Z,74.26
2018-03-18T02:31:27.676Z,73.89
2018-03-18T02:32:37.680Z,74.17
2018-03-18T02:33:47.673Z,74.26
2018-03-18T02:34:57.691Z,74.08
2018-03-18T02:36:07.691Z,73.89
2018-03-18T02:37:17.681Z,74.08
2018-03-18T02:38:27.405Z,74.83
2018-03-18T02:39:37.392Z,74.83
2018-03-18T02:40:47.470Z,73.79
2018-03-18T02:41:57.215Z,73.7
2018-03-18T02:43:06.946Z,73.89
2018-03-18T02:44:16.983Z,74.45
2018-03-18T02:45:26.713Z,74.08
2018-03-18T02:46:36.163Z,73.6
2018-03-18T02:47:45.907Z,74.17
2018-03-18T02:48:55.904Z,74.55
2018-03-18T02:50:05.354Z,74.36
2018-03-18T02:51:15.089Z,74.83
2018-03-18T02:52:25.106Z,73.98
2018-03-18T02:53:34.566Z,73.98
2018-03-18T02:54:44.564Z,74.55
2018-03-18T02:55:54.566Z,73.98
2018-03-18T02:57:04.301Z,73.51
2018-03-18T02:58:14.377Z,73.23
2018-03-18T02:59:24.357Z,72.47
2018-03-18T03:00:33.816Z,71.63
2018-03-18T03:01:43.540Z,71.63
2018-03-18T03:02:53.580Z,72.29
2018-03-18T03:04:03.312Z,72.19
2018-03-18T03:05:13.035Z,73.04
2018-03-18T03:06:23.041Z,72.94
2018-03-18T03:07:33.043Z,71.81
2018-03-18T03:08:43.127Z,71.81
2018-03-18T03:09:52.882Z,72
2018-03-18T03:11:02.606Z,71.63
2018-03-18T03:12:12.321Z,71.91
2018-03-18T03:13:22.040Z,71.63
2018-03-18T03:14:32.027Z,71.81
2018-03-18T03:15:41.749Z,72
2018-03-18T03:16:51.465Z,71.63
2018-03-18T03:18:01.442Z,71.06
2018-03-18T03:19:11.429Z,71.15
2018-03-18T03:20:21.512Z,72.1
2018-03-18T03:21:31.223Z,72.94
2018-03-18T03:22:40.934Z,73.51
2018-03-18T03:23:50.924Z,73.51
2018-03-18T03:25:00.919Z,73.89
2018-03-18T03:26:11.204Z,73.7
2018-03-18T03:27:20.931Z,73.42
2018-03-18T03:28:30.918Z,74.08
2018-03-18T03:29:40.638Z,74.17
2018-03-18T03:30:50.629Z,73.89
2018-03-18T03:32:00.641Z,74.83
2018-03-18T03:33:10.383Z,75.39
2018-03-18T03:34:20.103Z,75.87
2018-03-18T03:35:29.823Z,75.77
2018-03-18T03:36:39.807Z,75.87
2018-03-18T03:37:49.865Z,75.96
2018-03-18T03:38:59.854Z,75.77
2018-03-18T03:40:09.572Z,75.87
2018-03-18T03:41:19.558Z,76.34
2018-03-18T03:42:29.276Z,75.68
2018-03-18T03:43:39.268Z,75.96
2018-03-18T03:44:49.251Z,76.05
2018-03-18T03:45:59.236Z,76.15
2018-03-18T03:47:08.967Z,75.77
2018-03-18T03:48:18.946Z,76.15
2018-03-18T03:49:28.391Z,76.34
2018-03-18T03:50:38.108Z,76.24
2018-03-18T03:51:48.103Z,76.71
2018-03-18T03:52:57.812Z,76.34
2018-03-18T03:54:07.806Z,76.15
2018-03-18T03:55:17.793Z,75.68
2018-03-18T03:56:27.775Z,75.39
2018-03-18T03:57:37.754Z,75.58
2018-03-18T03:58:47.739Z,75.58
2018-03-18T03:59:57.743Z,75.02
2018-03-18T04:03:40.022Z,75.11
2018-03-18T04:04:50.011Z,74.73
2018-03-18T04:05:59.994Z,74.73
2018-03-18T04:07:09.986Z,74.55
2018-03-18T04:08:19.973Z,74.08
2018-03-18T04:09:29.693Z,74.08
2018-03-18T04:10:39.682Z,74.17
2018-03-18T04:11:49.662Z,74.83
2018-03-18T04:12:59.643Z,74.73
2018-03-18T04:14:09.355Z,74.83
2018-03-18T04:15:19.334Z,74.36
2018-03-18T04:16:29.322Z,74.36
2018-03-18T04:17:39.304Z,75.11
2018-03-18T04:18:48.752Z,74.83
2018-03-18T04:19:58.479Z,75.02
2018-03-18T04:21:08.196Z,75.11
2018-03-18T04:22:18.177Z,75.02
2018-03-18T04:23:28.166Z,74.92
2018-03-18T04:24:38.148Z,75.77
2018-03-18T04:25:48.126Z,75.68
2018-03-18T04:26:58.120Z,75.02
2018-03-18T04:28:08.103Z,75.49
2018-03-18T04:29:18.087Z,75.49
2018-03-18T04:30:27.800Z,75.3
2018-03-18T04:31:37.779Z,75.58
2018-03-18T04:32:47.808Z,75.39
2018-03-18T04:33:57.258Z,75.21
2018-03-18T04:35:07.296Z,74.08
2018-03-18T04:36:17.281Z,72.94
2018-03-18T04:37:27.261Z,72.76
2018-03-18T04:38:37.250Z,72.85
2018-03-18T04:39:46.967Z,73.23
2018-03-18T04:40:56.950Z,73.7
2018-03-18T04:42:06.936Z,73.6
2018-03-18T04:43:16.923Z,74.83
2018-03-18T04:44:26.919Z,74.83
2018-03-18T04:45:36.899Z,74.55
2018-03-18T04:46:46.886Z,74.83
2018-03-18T04:47:56.602Z,75.02
2018-03-18T04:49:06.368Z,76.24
2018-03-18T04:50:16.090Z,75.58
2018-03-18T04:51:26.085Z,75.68
2018-03-18T04:52:35.806Z,76.05
2018-03-18T04:53:45.797Z,75.87
2018-03-18T04:54:55.520Z,75.96
2018-03-18T04:56:05.502Z,76.34
2018-03-18T04:57:15.218Z,76.9
2018-03-18T04:58:25.201Z,76.34
2018-03-18T04:59:34.921Z,75.21
2018-03-18T05:00:44.916Z,76.24
2018-03-18T05:01:54.738Z,75.39
2018-03-18T05:03:04.722Z,74.83
2018-03-18T05:04:14.697Z,74.73
2018-03-18T05:05:24.691Z,74.55
2018-03-18T05:06:34.676Z,74.26
2018-03-18T05:07:44.659Z,74.45
2018-03-18T05:08:54.646Z,74.55
2018-03-18T05:10:04.624Z,74.73
2018-03-18T05:11:14.074Z,74.73
2018-03-18T05:12:24.057Z,75.49
2018-03-18T05:13:34.067Z,75.96
2018-03-18T05:14:43.516Z,75.11
2018-03-18T05:15:53.510Z,75.77
2018-03-18T05:17:03.236Z,75.96
2018-03-18T05:18:12.964Z,76.15
2018-03-18T05:19:22.781Z,76.34
2018-03-18T05:20:32.764Z,75.77
2018-03-18T05:21:42.776Z,76.34
2018-03-18T05:22:52.762Z,76.52
2018-03-18T05:24:02.756Z,77.09
2018-03-18T05:25:12.483Z,77.28
2018-03-18T05:26:22.476Z,77.09
2018-03-18T05:27:32.458Z,77.37
2018-03-18T05:28:42.450Z,77.09
2018-03-18T05:29:52.432Z,77.28
2018-03-18T05:31:02.153Z,77.75
2018-03-18T05:32:11.600Z,77.47
2018-03-18T05:33:21.590Z,77.84
2018-03-18T05:34:31.573Z,78.59
2018-03-18T05:35:41.299Z,78.59
2018-03-18T05:36:51.290Z,78.97
2018-03-18T05:38:01.276Z,79.16
2018-03-18T05:39:10.724Z,78.97
2018-03-18T05:40:20.445Z,79.16
2018-03-18T05:41:30.432Z,78.97
2018-03-18T05:42:40.418Z,78.88
2018-03-18T05:43:50.399Z,78.78
2018-03-18T05:45:00.113Z,78.59
2018-03-18T05:46:10.102Z,78.22
2018-03-18T05:47:20.083Z,78.03
2018-03-18T05:48:30.071Z,78.31
2018-03-18T05:49:39.797Z,77.37
2018-03-18T05:50:49.789Z,77.75
2018-03-18T05:51:59.774Z,77.66
2018-03-18T05:53:09.750Z,76.9
2018-03-18T05:54:19.730Z,77.56
2018-03-18T05:55:29.717Z,77.28
2018-03-18T05:56:39.704Z,77.09
2018-03-18T05:57:49.687Z,77
2018-03-18T05:58:59.666Z,77.28
2018-03-18T06:00:09.410Z,77.09
2018-03-18T06:01:19.401Z,76.9
2018-03-18T06:02:29.403Z,76.81
2018-03-18T06:03:39.122Z,76.15
2018-03-18T06:04:48.839Z,75.87
2018-03-18T06:05:58.879Z,75.11
2018-03-18T06:07:08.603Z,75.87
2018-03-18T06:08:18.581Z,75.21
2018-03-18T06:09:28.304Z,75.3
2018-03-18T06:10:38.287Z,75.02
2018-03-18T06:11:48.055Z,75.21
2018-03-18T06:12:58.033Z,75.58
2018-03-18T06:14:08.016Z,75.39
2018-03-18T06:15:18.016Z,75.96
2018-03-18T06:16:28.003Z,75.3
2018-03-18T06:17:37.996Z,75.87
2018-03-18T06:18:47.982Z,75.39
2018-03-18T06:19:57.987Z,75.02
2018-03-18T06:21:07.983Z,74.64
2018-03-18T06:22:18.038Z,74.83
2018-03-18T06:23:28.033Z,74.55
2018-03-18T06:24:38.019Z,74.92
2018-03-18T06:25:47.783Z,75.11
2018-03-18T06:26:57.503Z,75.58
2018-03-18T06:28:07.495Z,75.77
2018-03-18T06:29:17.512Z,75.68
2018-03-18T06:30:27.229Z,76.05
2018-03-18T06:31:37.216Z,75.49
2018-03-18T06:32:47.236Z,75.87
2018-03-18T06:33:57.228Z,75.3
2018-03-18T06:35:07.214Z,75.49
2018-03-18T06:36:17.201Z,76.05
2018-03-18T06:37:27.186Z,75.68
2018-03-18T06:38:37.136Z,75.68
2018-03-18T06:39:46.851Z,75.49
2018-03-18T06:40:56.831Z,74.64
2018-03-18T06:42:06.817Z,74.83
2018-03-18T06:43:16.806Z,74.36
2018-03-18T06:44:25.983Z,74.36
2018-03-18T06:45:35.699Z,75.11
2018-03-18T06:46:45.686Z,74.26
2018-03-18T06:47:55.145Z,74.92
2018-03-18T06:49:04.928Z,74.83
2018-03-18T06:50:14.645Z,74.55
2018-03-18T06:51:24.418Z,74.64
2018-03-18T06:52:34.411Z,74.55
2018-03-18T06:53:44.126Z,73.6
2018-03-18T06:54:53.973Z,72.38
2018-03-18T06:56:03.965Z,72.47
2018-03-18T06:57:13.687Z,72.29
2018-03-18T06:58:23.737Z,72.47
2018-03-18T06:59:33.455Z,72.38
2018-03-18T07:00:43.449Z,72.47
2018-03-18T07:01:52.904Z,73.13
2018-03-18T07:03:02.892Z,72.38
2018-03-18T07:04:12.879Z,72.47
2018-03-18T07:05:22.869Z,72.38
2018-03-18T07:06:32.586Z,71.63
2018-03-18T07:07:42.307Z,71.91
2018-03-18T07:08:52.023Z,71.53
2018-03-18T07:10:01.740Z,71.25
2018-03-18T07:11:11.195Z,71.44
2018-03-18T07:12:21.182Z,70.78
2018-03-18T07:13:31.183Z,70.31
2018-03-18T07:14:40.904Z,70.4
2018-03-18T07:15:50.899Z,70.12
2018-03-18T07:17:00.882Z,70.21
2018-03-18T07:18:10.876Z,70.03
2018-03-18T07:19:20.600Z,69.84
2018-03-18T07:20:30.322Z,69.56
2018-03-18T07:21:40.144Z,70.03
2018-03-18T07:22:50.127Z,70.21
2018-03-18T07:24:00.112Z,70.68
2018-03-18T07:25:10.100Z,71.06
2018-03-18T07:26:19.817Z,71.53
2018-03-18T07:27:29.550Z,71.63
2018-03-18T07:28:39.262Z,71.91
2018-03-18T07:29:48.985Z,71.91
2018-03-18T07:30:58.711Z,71.91
2018-03-18T07:32:08.695Z,72.29
2018-03-18T07:33:18.416Z,72.29
2018-03-18T07:34:28.130Z,72.85
2018-03-18T07:35:37.855Z,72.76
2018-03-18T07:36:47.580Z,72.85
2018-03-18T07:37:57.307Z,72.38
2018-03-18T07:39:07.126Z,72.57
2018-03-18T07:40:17.374Z,72.38
2018-03-18T07:41:27.091Z,71.72
2018-03-18T07:42:36.540Z,71.91
2018-03-18T07:43:46.544Z,71.53
2018-03-18T07:44:56.402Z,71.53
2018-03-18T07:46:06.120Z,71.63
2018-03-18T07:47:16.269Z,71.06
2018-03-18T07:48:26.326Z,71.15
2018-03-18T07:49:36.312Z,71.15
2018-03-18T07:50:46.412Z,71.25
2018-03-18T07:51:56.409Z,70.78
2018-03-18T07:53:06.141Z,70.97
2018-03-18T07:54:16.124Z,70.5
2018-03-18T07:55:26.109Z,70.21
2018-03-18T07:56:36.098Z,70.4
2018-03-18T07:57:45.831Z,70.4
2018-03-18T07:58:55.818Z,70.31
2018-03-18T08:00:05.538Z,70.31
2018-03-18T08:01:15.270Z,70.03
2018-03-18T08:02:24.717Z,70.12
2018-03-18T08:03:34.439Z,70.21
2018-03-18T08:04:44.425Z,70.12
2018-03-18T08:05:54.149Z,70.12
2018-03-18T08:07:04.137Z,70.4
2018-03-18T08:08:13.608Z,70.59
2018-03-18T08:09:23.801Z,69.84
2018-03-18T08:10:33.806Z,70.03
2018-03-18T08:11:43.791Z,70.03
2018-03-18T08:12:53.836Z,70.21
2018-03-18T08:14:03.998Z,69.56
2018-03-18T08:15:13.844Z,69.93
2018-03-18T08:16:23.838Z,69.84
2018-03-18T08:17:33.829Z,68.99
2018-03-18T08:18:43.546Z,69.09
2018-03-18T08:19:53.269Z,69.09
2018-03-18T08:21:02.997Z,68.99
2018-03-18T08:22:12.993Z,69.84
2018-03-18T08:23:22.456Z,69.93
2018-03-18T08:24:32.448Z,71.34
2018-03-18T08:25:42.432Z,71.72
2018-03-18T08:26:51.875Z,72.57
2018-03-18T08:28:01.870Z,73.13
2018-03-18T08:29:11.593Z,73.42
2018-03-18T08:30:21.586Z,73.13
2018-03-18T08:31:31.573Z,74.08
2018-03-18T08:32:41.554Z,73.89
2018-03-18T08:33:51.540Z,74.26
2018-03-18T08:35:01.519Z,74.26
2018-03-18T08:36:10.705Z,74.83
2018-03-18T08:37:20.425Z,74.45
2018-03-18T08:38:29.889Z,73.7
2018-03-18T08:39:39.884Z,72.57
2018-03-18T08:40:49.607Z,72.85
2018-03-18T08:41:59.322Z,72.94
2018-03-18T08:43:09.315Z,71.76
2018-03-18T08:44:19.300Z,71.66
2018-03-18T08:45:29.298Z,71.38
2018-03-18T08:46:39.295Z,71.1
2018-03-18T08:47:49.366Z,70.72
2018-03-18T08:48:59.354Z,70.25
2018-03-18T08:50:09.076Z,69.12
2018-03-18T08:51:18.816Z,68.55
2018-03-18T08:52:28.807Z,67.99
2018-03-18T08:53:38.802Z,68.08
2018-03-18T08:54:48.827Z,67.61
2018-03-18T08:55:58.551Z,66.39
2018-03-18T08:57:08.273Z,66.11
2018-03-18T08:58:17.992Z,65.92
2018-03-18T08:59:27.974Z,65.64
2018-03-18T09:00:37.963Z,65.92
2018-03-18T09:01:47.952Z,66.3
2018-03-18T09:02:57.943Z,65.92
2018-03-18T09:04:07.942Z,64.98
2018-03-18T09:05:17.411Z,64.89
2018-03-18T09:06:27.395Z,64.7
2018-03-18T09:07:37.123Z,64.04
2018-03-18T09:08:47.114Z,64.04
2018-03-18T09:09:56.568Z,64.23
2018-03-18T09:11:05.758Z,63.57
2018-03-18T09:12:15.749Z,63.66
2018-03-18T09:13:25.205Z,63.38
2018-03-18T09:14:35.188Z,63.66
2018-03-18T09:15:45.185Z,63.57
2018-03-18T09:16:55.174Z,63.38
2018-03-18T09:18:05.191Z,63.38
2018-03-18T09:19:14.913Z,63.09
2018-03-18T09:20:24.650Z,63.32
2018-03-18T09:21:34.372Z,63.5
2018-03-18T09:22:44.363Z,63.41
2018-03-18T09:23:53.816Z,63.22
2018-03-18T09:25:03.539Z,63.5
2018-03-18T09:26:13.260Z,63.5
2018-03-18T09:27:23.256Z,63.03
2018-03-18T09:28:33.318Z,63.03
2018-03-18T09:29:43.311Z,62.18
2018-03-18T09:30:53.048Z,61.99
2018-03-18T09:32:02.768Z,61.52
2018-03-18T09:33:12.500Z,61.05
2018-03-18T09:34:22.496Z,60.68
2018-03-18T09:35:32.220Z,59.92
2018-03-18T09:36:42.399Z,59.17
2018-03-18T09:37:52.394Z,58.61
2018-03-18T09:39:02.379Z,58.7
2018-03-18T09:40:12.384Z,58.61
2018-03-18T09:41:22.512Z,58.51
2018-03-18T09:42:32.238Z,58.42
2018-03-18T09:43:42.053Z,58.32
2018-03-18T09:44:52.041Z,58.98
2018-03-18T09:46:01.774Z,59.36
2018-03-18T09:47:11.807Z,58.8
2018-03-18T09:48:21.804Z,58.98
2018-03-18T09:49:31.265Z,59.55
2018-03-18T09:50:40.980Z,59.36
2018-03-18T09:51:50.965Z,60.3
2018-03-18T09:53:00.689Z,59.92
2018-03-18T09:54:10.681Z,59.83
2018-03-18T09:55:20.495Z,60.49
2018-03-18T09:56:30.504Z,60.61
2018-03-18T09:57:40.241Z,60.99
2018-03-18T09:58:49.971Z,60.14
2018-03-18T09:59:59.701Z,58.63
2018-03-18T10:01:09.704Z,58.16
2018-03-18T10:02:19.423Z,56.93
2018-03-18T10:03:28.881Z,56.46
2018-03-18T10:04:38.615Z,56.09
2018-03-18T10:05:48.341Z,56.18
2018-03-18T10:06:58.066Z,56.44
2018-03-18T10:08:07.788Z,56.62
2018-03-18T10:09:17.878Z,57.22
2018-03-18T10:10:27.886Z,57.03
2018-03-18T10:11:37.880Z,57.12
2018-03-18T10:12:47.608Z,57.22
2018-03-18T10:13:57.616Z,58.45
2018-03-18T10:15:07.472Z,58.63
2018-03-18T10:16:17.201Z,58.54
2018-03-18T10:17:27.266Z,59.39
2018-03-18T10:18:36.986Z,59.01
2018-03-18T10:19:46.977Z,59.2
2018-03-18T10:20:56.977Z,59.01
2018-03-18T10:22:06.817Z,59.48
2018-03-18T10:23:16.857Z,58.92
2018-03-18T10:24:26.580Z,58.38
2018-03-18T10:25:36.066Z,58.29
2018-03-18T10:26:46.198Z,58.1
2018-03-18T10:27:56.187Z,57.34
2018-03-18T10:29:05.912Z,57.06
2018-03-18T10:30:15.684Z,56.59
2018-03-18T10:31:25.701Z,55.83
2018-03-18T10:32:35.768Z,55.08
2018-03-18T10:33:45.584Z,55.62
2018-03-18T10:34:55.057Z,55.99
2018-03-18T10:36:04.793Z,56.46
2018-03-18T10:37:14.790Z,56.93
2018-03-18T10:38:24.789Z,57.88
2018-03-18T10:39:34.909Z,58.26
2018-03-18T10:40:45.013Z,59.17
2018-03-18T10:41:54.875Z,60.02
2018-03-18T10:43:05.336Z,61.05
2018-03-18T10:44:15.060Z,61.15
2018-03-18T10:45:24.790Z,61.71
2018-03-18T10:46:34.783Z,62.09
2018-03-18T10:47:44.770Z,62.09
2018-03-18T10:48:54.763Z,61.81
2018-03-18T10:50:04.220Z,61.71
2018-03-18T10:51:13.960Z,61.81
2018-03-18T10:52:23.954Z,61.81
2018-03-18T10:53:34.061Z,61.33
2018-03-18T10:54:44.054Z,61.24
2018-03-18T10:55:53.517Z,60.77
2018-03-18T10:57:02.980Z,60.49
2018-03-18T10:58:12.970Z,60.02
2018-03-18T10:59:23.066Z,59.92
2018-03-18T11:00:32.797Z,59.36
2018-03-18T11:01:42.799Z,59.83
2018-03-18T11:02:52.795Z,58.89
2018-03-18T11:04:02.789Z,57.95
2018-03-18T11:05:12.781Z,57.76
2018-03-18T11:06:22.510Z,58.04
2018-03-18T11:07:32.569Z,57.78
2018-03-18T11:08:42.563Z,57.6
2018-03-18T11:09:52.314Z,56.84
2018-03-18T11:11:02.318Z,57.31
2018-03-18T11:12:12.319Z,57.5
2018-03-18T11:13:21.814Z,56.96
2018-03-18T11:14:31.814Z,55.74
2018-03-18T11:15:41.811Z,54.54
2018-03-18T11:16:51.809Z,52.75
2018-03-18T11:18:01.820Z,51.05
2018-03-18T11:19:11.549Z,50.76
2018-03-18T11:20:21.282Z,50.32
2018-03-18T11:21:31.282Z,50.13
2018-03-18T11:22:41.278Z,49.09
2018-03-18T11:23:51.348Z,49.3
2018-03-18T11:25:01.092Z,48.74
2018-03-18T11:26:10.559Z,47.63
2018-03-18T11:27:20.563Z,46.78
2018-03-18T11:28:30.298Z,45.83
2018-03-18T11:29:39.764Z,45.17
2018-03-18T11:30:49.768Z,43.28
2018-03-18T11:31:59.286Z,43.57
2018-03-18T11:33:08.754Z,43.68
2018-03-18T11:34:17.954Z,43.77
2018-03-18T11:35:27.953Z,42.93
2018-03-18T11:36:37.965Z,41.79
2018-03-18T11:37:47.967Z,41.79
2018-03-18T11:38:57.972Z,41.41
2018-03-18T11:40:07.713Z,41.51
2018-03-18T11:41:17.454Z,41.6
2018-03-18T11:42:27.514Z,41.13
2018-03-18T11:43:37.339Z,40.75
2018-03-18T11:44:47.082Z,40.09
2018-03-18T11:45:57.094Z,40.28
2018-03-18T11:47:06.829Z,39.83
2018-03-18T11:48:16.567Z,39.92
2018-03-18T11:49:26.572Z,39.64
2018-03-18T11:50:36.166Z,38.9
2018-03-18T11:51:46.186Z,38.24
2018-03-18T11:52:56.194Z,37.76
2018-03-18T11:54:05.942Z,37.1
2018-03-18T11:55:15.686Z,37.29
2018-03-18T11:56:25.469Z,37.31
2018-03-18T11:57:35.475Z,38.07
2018-03-18T11:58:44.949Z,36.47
2018-03-18T11:59:55.062Z,35.62
2018-03-18T12:01:05.127Z,35.62
2018-03-18T12:02:14.969Z,35.43
2018-03-18T12:03:24.979Z,35.43
2018-03-18T12:04:34.996Z,36.38
2018-03-18T12:05:45.005Z,36.78
2018-03-18T12:06:55.025Z,35.38
2018-03-18T12:08:04.779Z,34.78
2018-03-18T12:09:14.800Z,34.03
2018-03-18T12:10:24.552Z,34.03
2018-03-18T12:11:34.562Z,33.76
2018-03-18T12:12:44.655Z,33.57
2018-03-18T12:13:54.399Z,32.81
2018-03-18T12:15:03.880Z,32.91
2018-03-18T12:16:13.624Z,34.71
2018-03-18T12:17:23.646Z,35.88
2018-03-18T12:18:33.659Z,35.81
2018-03-18T12:19:43.672Z,35.35
2018-03-18T12:20:53.417Z,34.88
2018-03-18T12:22:02.895Z,32.78
2018-03-18T12:23:12.640Z,32.8
2018-03-18T12:24:22.658Z,33.18
2018-03-18T12:25:32.412Z,33.47
2018-03-18T12:26:42.168Z,32.43
2018-03-18T12:27:52.184Z,32.72
2018-03-18T12:29:01.940Z,32.83
2018-03-18T12:30:11.954Z,32.85
2018-03-18T12:31:21.715Z,32.75
2018-03-18T12:32:31.727Z,32.28
2018-03-18T12:33:41.744Z,30.2
2018-03-18T12:34:51.847Z,28.39
2018-03-18T12:36:01.599Z,27.42
2018-03-18T12:37:11.353Z,26.26
2018-03-18T12:38:21.373Z,27.49
2018-03-18T12:39:31.185Z,28.74
2018-03-18T12:40:41.222Z,28.74
2018-03-18T12:41:50.982Z,27.88
2018-03-18T12:43:00.997Z,26.07
2018-03-18T12:44:10.484Z,25.51
2018-03-18T12:45:20.497Z,25.95
2018-03-18T12:46:30.555Z,27.18
2018-03-18T12:47:40.367Z,27.18
2018-03-18T12:48:50.384Z,26.98
2018-03-18T12:50:00.134Z,27.08
2018-03-18T12:51:09.347Z,26.13
2018-03-18T12:52:18.835Z,27.18
2018-03-18T12:53:28.850Z,27.36
2018-03-18T12:54:38.929Z,27.73
2018-03-18T12:55:48.474Z,28.78
2018-03-18T12:56:58.219Z,28.59
2018-03-18T12:58:07.970Z,28.49
2018-03-18T12:59:17.455Z,28.97
2018-03-18T13:00:27.208Z,30.51
2018-03-18T13:01:37.232Z,30.34
2018-03-18T13:02:47.249Z,29.98
2018-03-18T13:03:57.265Z,29.88
2018-03-18T13:05:07.015Z,30.57
2018-03-18T13:06:17.028Z,30.39
2018-03-18T13:07:27.054Z,29.16
2018-03-18T13:08:37.077Z,28.88
2018-03-18T13:09:47.093Z,29.56
2018-03-18T13:10:56.849Z,29
2018-03-18T13:12:06.609Z,28.89
2018-03-18T13:13:16.642Z,27.56
2018-03-18T13:14:26.687Z,27.47
2018-03-18T13:15:36.711Z,28.61
2018-03-18T13:16:46.784Z,26.24
2018-03-18T13:17:56.687Z,24.4
2018-03-18T13:19:06.444Z,24.19
2018-03-18T13:20:16.513Z,23.61
2018-03-18T13:21:26.536Z,24.46
2018-03-18T13:22:36.656Z,27.97
2018-03-18T13:23:46.415Z,26.17
2018-03-18T13:24:56.318Z,25.96
2018-03-18T13:26:06.128Z,27.67
2018-03-18T13:27:16.142Z,28.34
2018-03-18T13:28:26.165Z,28.53
2018-03-18T13:29:36.184Z,28.52
2018-03-18T13:30:46.196Z,28.31
2018-03-18T13:31:55.946Z,27.64
2018-03-18T13:33:05.958Z,28.67
2018-03-18T13:34:15.709Z,28.19
2018-03-18T13:35:25.716Z,29.22
2018-03-18T13:36:35.729Z,29.4
2018-03-18T13:37:45.739Z,30.35
2018-03-18T13:38:55.794Z,31.37
2018-03-18T13:40:05.366Z,31.17
2018-03-18T13:41:15.114Z,31.36
2018-03-18T13:42:25.117Z,31.91
2018-03-18T13:43:34.586Z,32.57
2018-03-18T13:44:44.592Z,34.17
2018-03-18T13:45:54.649Z,35.68
2018-03-18T13:47:04.657Z,36.33
2018-03-18T13:48:14.477Z,37.46
2018-03-18T13:49:23.997Z,37.37
2018-03-18T13:50:33.738Z,37.55
2018-03-18T13:51:43.748Z,37.63
2018-03-18T13:52:53.487Z,38.48
2018-03-18T13:54:03.488Z,39.9
2018-03-18T13:55:13.492Z,39.71
2018-03-18T13:56:23.251Z,39.81
2018-03-18T13:57:33.260Z,39.97
2018-03-18T13:58:43.270Z,40.16
2018-03-18T13:59:52.742Z,41.02
2018-03-18T14:01:02.744Z,41.86
2018-03-18T14:02:12.756Z,42.05
2018-03-18T14:03:22.493Z,42.52
2018-03-18T14:04:32.499Z,43.28
2018-03-18T14:05:42.607Z,45.74
2018-03-18T14:06:52.349Z,45.55
2018-03-18T14:08:02.345Z,45.36
2018-03-18T14:09:11.810Z,44.79
2018-03-18T14:10:21.806Z,44.98
2018-03-18T14:11:31.806Z,44.89
2018-03-18T14:12:41.816Z,44.7
2018-03-18T14:13:51.014Z,44.32
2018-03-18T14:15:01.010Z,44.23
2018-03-18T14:16:10.473Z,43.38
2018-03-18T14:17:20.293Z,42.93
2018-03-18T14:18:29.989Z,42.93
2018-03-18T14:19:40.020Z,43.59
2018-03-18T14:20:50.025Z,43.49
2018-03-18T14:21:59.548Z,41.7
2018-03-18T14:23:09.627Z,40.19
2018-03-18T14:24:19.636Z,40.07
2018-03-18T14:25:29.369Z,39.5
2018-03-18T14:26:39.130Z,40.07
2018-03-18T14:27:49.132Z,42.62
2018-03-18T14:28:58.866Z,43.49
2018-03-18T14:30:08.874Z,44.82
2018-03-18T14:31:18.605Z,43.59
2018-03-18T14:32:28.441Z,43.4
2018-03-18T14:33:38.442Z,43.68
2018-03-18T14:34:48.446Z,44.06
2018-03-18T14:35:58.169Z,43.87
2018-03-18T14:37:08.168Z,41.79
2018-03-18T14:38:18.224Z,40.09
2018-03-18T14:39:27.953Z,39.62
2018-03-18T14:40:37.965Z,38.86
2018-03-18T14:41:47.973Z,38.01
2018-03-18T14:42:57.967Z,38.01
2018-03-18T14:44:07.428Z,38.31
2018-03-18T14:45:17.158Z,38.22
2018-03-18T14:46:27.161Z,37.65
2018-03-18T14:47:36.896Z,37.65
2018-03-18T14:48:46.913Z,37.46
2018-03-18T14:49:56.641Z,37.46
2018-03-18T14:51:06.384Z,36.33
2018-03-18T14:52:16.116Z,35.57
2018-03-18T14:53:26.115Z,35.11
2018-03-18T14:54:36.177Z,34.74
2018-03-18T14:55:45.925Z,34.17
2018-03-18T14:56:55.669Z,33.88
2018-03-18T14:58:05.435Z,33.31
2018-03-18T14:59:15.173Z,33.5
2018-03-18T15:00:25.183Z,33.31
2018-03-18T15:01:34.834Z,32.93
2018-03-18T15:02:44.535Z,32.46
2018-03-18T15:03:54.272Z,31.71
2018-03-18T15:05:04.278Z,31.34